NCAR-RAP Real-Time Weather Data

Output produced by METARs form (30 January 2015  13:54 UTC)
found at http://weather.rap.ucar.edu/surface/
 
Conditions at: KALB observed 30 January 2015  13:51 UTC
Temperature: -2.2°C (28°F)
Dewpoint: -3.9°C (25°F) [RH = 88%]
Pressure (altimeter): 29.85 inches Hg (1010.9 mb)
[Sea-level pressure: 1011.2 mb]
Winds: from the SSW (200 degrees) at 5 MPH (4 knots; 2.1 m/s)
Visibility: 0.50 miles (0.80 km)
Ceiling: indefinite ceiling with vertical visibility of 500 feet AGL
Clouds: obscured sky
Present Weather: FZFG SN  (freezing fog, snow)
KALB 301351Z 20004KT 1/2SM R01/2600V3500FT SN FZFG VV005 M02/M04 A2985 RMK AO2 SLP112 P0003 T10221039

Conditions at: KALB observed 30 January 2015  13:46 UTC
Temperature: -2.0°C (28°F)
Dewpoint: -4.0°C (25°F) [RH = 86%]
Pressure (altimeter): 29.85 inches Hg (1010.9 mb)
Winds: from the SSW (200 degrees) at 5 MPH (4 knots; 2.1 m/s)
Visibility: 0.50 miles (0.80 km)
Ceiling: indefinite ceiling with vertical visibility of 700 feet AGL
Clouds: obscured sky
Present Weather: FZFG SN  (freezing fog, snow)
KALB 301346Z 20004KT 1/2SM R01/3000V4000FT SN FZFG VV007 M02/M04 A2985 RMK AO2 P0002

Conditions at: KALB observed 30 January 2015  13:30 UTC
Temperature: -2.2°C (28°F)
Dewpoint: -3.9°C (25°F) [RH = 88%]
Pressure (altimeter): 29.85 inches Hg (1010.9 mb)
Winds: from the SSW (200 degrees) at 5 MPH (4 knots; 2.1 m/s)
Visibility: 0.75 miles (1.21 km)
Ceiling: indefinite ceiling with vertical visibility of 1100 feet AGL
Clouds: obscured sky
Present Weather: -SN BR  (light snow, mist)
KALB 301330Z 20004KT 3/4SM R01/4000VP6000FT -SN BR VV011 M02/M04 A2985 RMK AO2 P0001 T10221039

Conditions at: KALB observed 30 January 2015  13:14 UTC
Temperature: -2.2°C (28°F)
Dewpoint: -4.4°C (24°F) [RH = 85%]
Pressure (altimeter): 29.84 inches Hg (1010.6 mb)
Winds: from the S (180 degrees) at 6 MPH (5 knots; 2.6 m/s)
Visibility: 1.00 miles (1.61 km)
Ceiling: indefinite ceiling with vertical visibility of 1400 feet AGL
Clouds: obscured sky
Present Weather: -SN BR  (light snow, mist)
KALB 301314Z 18005KT 1SM R01/4500V6000FT -SN BR VV014 M02/M04 A2984 RMK AO2 TWR VIS 1 1/4 VIS 3/4V1 1/4 P0000 T10221044

Conditions at: KALB observed 30 January 2015  12:55 UTC
Temperature: -2.2°C (28°F)
Dewpoint: -4.4°C (24°F) [RH = 85%]
Pressure (altimeter): 29.84 inches Hg (1010.6 mb)
Winds: from the S (190 degrees) at 5 MPH (4 knots; 2.1 m/s)
Visibility: 1.25 miles (2.01 km)
Ceiling: 2200 feet AGL
Clouds: overcast cloud deck at 2200 feet AGL
Present Weather: -SN BR  (light snow, mist)
KALB 301255Z 19004KT 1 1/4SM -SN BR OVC022 M02/M04 A2984 RMK AO2 VIS 1V1 1/2 P0000 T10221044

Conditions at: KALB observed 30 January 2015  12:51 UTC
Temperature: -2.2°C (28°F)
Dewpoint: -4.4°C (24°F) [RH = 85%]
Pressure (altimeter): 29.84 inches Hg (1010.6 mb)
[Sea-level pressure: 1010.7 mb]
Winds: from the S (170 degrees) at 5 MPH (4 knots; 2.1 m/s)
Visibility: 2.50 miles (4.02 km)
Ceiling: 2200 feet AGL
Clouds: overcast cloud deck at 2200 feet AGL
Present Weather: -SN BR  (light snow, mist)
KALB 301251Z 17004KT 2 1/2SM -SN BR OVC022 M02/M04 A2984 RMK AO2 SLP107 VIS 2V3 P0001 T10221044

Conditions at: KALB observed 30 January 2015  11:51 UTC
Temperature: -2.2°C (28°F)
Dewpoint: -4.4°C (24°F) [RH = 85%]
Pressure (altimeter): 29.84 inches Hg (1010.6 mb)
[Sea-level pressure: 1010.7 mb]
Winds: from the S (170 degrees) at 8 MPH (7 knots; 3.6 m/s)
Visibility: 5 miles (8 km)
Ceiling: 2400 feet AGL
Clouds: few clouds at 900 feet AGL
overcast cloud deck at 2400 feet AGL
Present Weather: -SN BR  (light snow, mist)
KALB 301151Z 17007KT 5SM -SN BR FEW009 OVC024 M02/M04 A2984 RMK AO2 SNB11 SLP107 4/004 P0000 60004 70005 T10221044 11022 21022 56004

Conditions at: KALB observed 30 January 2015  10:51 UTC
Temperature: -2.2°C (28°F)
Dewpoint: -4.4°C (24°F) [RH = 85%]
Pressure (altimeter): 29.84 inches Hg (1010.6 mb)
[Sea-level pressure: 1010.7 mb]
Winds: from the S (180 degrees) at 7 MPH (6 knots; 3.1 m/s)
Visibility: 9 miles (14 km)
Ceiling: 2900 feet AGL
Clouds: few clouds at 900 feet AGL
broken clouds at 2900 feet AGL
overcast cloud deck at 7000 feet AGL
Present Weather: no significant weather observed at this time
KALB 301051Z 18006KT 9SM FEW009 BKN029 OVC070 M02/M04 A2984 RMK AO2 SNE29 SLP107 P0000 T10221044

Conditions at: KALB observed 30 January 2015  09:51 UTC
Temperature: -2.2°C (28°F)
Dewpoint: -4.4°C (24°F) [RH = 85%]
Pressure (altimeter): 29.84 inches Hg (1010.6 mb)
[Sea-level pressure: 1010.6 mb]
Winds: from the S (180 degrees) at 8 MPH (7 knots; 3.6 m/s)
Visibility: 5 miles (8 km)
Ceiling: 3300 feet AGL
Clouds: few clouds at 800 feet AGL
broken clouds at 3300 feet AGL
overcast cloud deck at 7500 feet AGL
Present Weather: -SN BR  (light snow, mist)
KALB 300951Z 18007KT 5SM -SN BR FEW008 BKN033 OVC075 M02/M04 A2984 RMK AO2 SLP106 P0000 T10221044

Conditions at: KALB observed 30 January 2015  09:11 UTC
Temperature: -2.2°C (28°F)
Dewpoint: -4.4°C (24°F) [RH = 85%]
Pressure (altimeter): 29.85 inches Hg (1010.9 mb)
Winds: from the S (170 degrees) at 8 MPH (7 knots; 3.6 m/s)
Visibility: 3 miles (5 km)
Ceiling: 3300 feet AGL
Clouds: few clouds at 800 feet AGL
scattered clouds at 2000 feet AGL
overcast cloud deck at 3300 feet AGL
Present Weather: -SN BR  (light snow, mist)
KALB 300911Z 17007KT 3SM -SN BR FEW008 SCT020 OVC033 M02/M04 A2985 RMK AO2 P0000 T10221044

Conditions at: KALB observed 30 January 2015  09:01 UTC
Temperature: -2.2°C (28°F)
Dewpoint: -4.4°C (24°F) [RH = 85%]
Pressure (altimeter): 29.85 inches Hg (1010.9 mb)
Winds: from the S (180 degrees) at 8 MPH (7 knots; 3.6 m/s)
Visibility: 2.50 miles (4.02 km)
Ceiling: 1700 feet AGL
Clouds: few clouds at 800 feet AGL
broken clouds at 1700 feet AGL
overcast cloud deck at 3300 feet AGL
Present Weather: -SN BR  (light snow, mist)
KALB 300901Z 18007KT 2 1/2SM -SN BR FEW008 BKN017 OVC033 M02/M04 A2985 RMK AO2 P0000 T10221044

Conditions at: KALB observed 30 January 2015  08:51 UTC
Temperature: -2.2°C (28°F)
Dewpoint: -4.4°C (24°F) [RH = 85%]
Pressure (altimeter): 29.85 inches Hg (1010.9 mb)
[Sea-level pressure: 1011.0 mb]
Winds: from the S (180 degrees) at 9 MPH (8 knots; 4.2 m/s)
Visibility: 1.50 miles (2.41 km)
Ceiling: 1500 feet AGL
Clouds: few clouds at 800 feet AGL
overcast cloud deck at 1500 feet AGL
Present Weather: -SN  (light snow)
KALB 300851Z 18008KT 1 1/2SM -SN FEW008 OVC015 M02/M04 A2985 RMK AO2 SLP110 VIS 1 1/4V1 3/4 P0002 60004 T10221044 58010

Conditions at: KALB observed 30 January 2015  08:35 UTC
Temperature: -2.2°C (28°F)
Dewpoint: -4.4°C (24°F) [RH = 85%]
Pressure (altimeter): 29.85 inches Hg (1010.9 mb)
Winds: from the S (180 degrees) at 10 MPH (9 knots; 4.7 m/s)
Visibility: 1.50 miles (2.41 km)
Ceiling: 1600 feet AGL
Clouds: scattered clouds at 800 feet AGL
overcast cloud deck at 1600 feet AGL
Present Weather: -SN  (light snow)
KALB 300835Z 18009KT 1 1/2SM -SN SCT008 OVC016 M02/M04 A2985 RMK AO2 VIS 1 1/4V1 3/4 SCT V BKN P0000 T10221044

Conditions at: KALB observed 30 January 2015  08:22 UTC
Temperature: -2.2°C (28°F)
Dewpoint: -4.4°C (24°F) [RH = 85%]
Pressure (altimeter): 29.85 inches Hg (1010.9 mb)
Winds: from the S (180 degrees) at 9 MPH (8 knots; 4.2 m/s)
Visibility: 1.50 miles (2.41 km)
Ceiling: 1100 feet AGL
Clouds: broken clouds at 1100 feet AGL
overcast cloud deck at 2200 feet AGL
Present Weather: -SN  (light snow)
KALB 300822Z 18008KT 1 1/2SM -SN BKN011 OVC022 M02/M04 A2985 RMK AO2 BKN V SCT P0000 T10221044

Conditions at: KALB observed 30 January 2015  08:09 UTC
Temperature: -2.2°C (28°F)
Dewpoint: -4.4°C (24°F) [RH = 85%]
Pressure (altimeter): 29.85 inches Hg (1010.9 mb)
Winds: from the S (180 degrees) at 10 MPH (9 knots; 4.7 m/s)
Visibility: 2.00 miles (3.22 km)
Ceiling: 1100 feet AGL
Clouds: broken clouds at 1100 feet AGL
overcast cloud deck at 2400 feet AGL
Present Weather: -SN  (light snow)
KALB 300809Z 18009KT 2SM -SN BKN011 OVC024 M02/M04 A2985 RMK AO2 P0000 T10221044

Conditions at: KALB observed 30 January 2015  07:51 UTC
Temperature: -2.2°C (28°F)
Dewpoint: -5.0°C (23°F) [RH = 81%]
Pressure (altimeter): 29.86 inches Hg (1011.3 mb)
[Sea-level pressure: 1011.5 mb]
Winds: from the S (180 degrees) at 14 MPH (12 knots; 6.2 m/s)
Visibility: 4 miles (6 km)
Ceiling: 1200 feet AGL
Clouds: broken clouds at 1200 feet AGL
overcast cloud deck at 4400 feet AGL
Present Weather: -SN  (light snow)
KALB 300751Z 18012KT 4SM -SN BKN012 OVC044 M02/M05 A2986 RMK AO2 SLP115 P0001 T10221050

Conditions at: KALB observed 30 January 2015  07:14 UTC
Temperature: -2.2°C (28°F)
Dewpoint: -5.0°C (23°F) [RH = 81%]
Pressure (altimeter): 29.87 inches Hg (1011.6 mb)
Winds: from the S (180 degrees) at 12 MPH (10 knots; 5.2 m/s)
Visibility: 6 miles (10 km)
Ceiling: 1000 feet AGL
Clouds: broken clouds at 1000 feet AGL
broken clouds at 2100 feet AGL
overcast cloud deck at 4700 feet AGL
Present Weather: -SN  (light snow)
KALB 300714Z 18010KT 6SM -SN BKN010 BKN021 OVC047 M02/M05 A2987 RMK AO2 DRSN P0000 T10221050

Conditions at: KALB observed 30 January 2015  06:58 UTC
Temperature: -2.2°C (28°F)
Dewpoint: -5.0°C (23°F) [RH = 81%]
Pressure (altimeter): 29.87 inches Hg (1011.6 mb)
Winds: from the S (180 degrees) at 10 MPH (9 knots; 4.7 m/s)
Visibility: 3 miles (5 km)
Ceiling: 2100 feet AGL
Clouds: scattered clouds at 1000 feet AGL
broken clouds at 2100 feet AGL
overcast cloud deck at 4700 feet AGL
Present Weather: -SN  (light snow)
KALB 300658Z 18009KT 3SM -SN SCT010 BKN021 OVC047 M02/M05 A2987 RMK AO2 DRSN P0000 T10221050

Conditions at: KALB observed 30 January 2015  06:51 UTC
Temperature: -2.2°C (28°F)
Dewpoint: -5.0°C (23°F) [RH = 81%]
Pressure (altimeter): 29.87 inches Hg (1011.6 mb)
[Sea-level pressure: 1012.0 mb]
Winds: from the S (180 degrees) at 12 MPH (10 knots; 5.2 m/s)
Visibility: 2.00 miles (3.22 km)
Ceiling: 1900 feet AGL
Clouds: scattered clouds at 1000 feet AGL
scattered clouds at 1400 feet AGL
overcast cloud deck at 1900 feet AGL
Present Weather: -SN  (light snow)
KALB 300651Z 18010KT 2SM -SN SCT010 SCT014 OVC019 M02/M05 A2987 RMK AO2 SLP120 VIS 1 1/2V2 1/2 SCT014 V BKN DRSN P0001 T10221050

Conditions at: KALB observed 30 January 2015  06:15 UTC
Temperature: -2.2°C (28°F)
Dewpoint: -4.4°C (24°F) [RH = 85%]
Pressure (altimeter): 29.88 inches Hg (1011.9 mb)
Winds: from the S (170 degrees) at 14 MPH (12 knots; 6.2 m/s)
Visibility: 1.50 miles (2.41 km)
Ceiling: 1100 feet AGL
Clouds: broken clouds at 1100 feet AGL
overcast cloud deck at 2600 feet AGL
Present Weather: -SN  (light snow)
KALB 300615Z 17012KT 1 1/2SM -SN BKN011 OVC026 M02/M04 A2988 RMK AO2 DRSN P0000 T10221044

Conditions at: KALB observed 30 January 2015  06:05 UTC
Temperature: -2.2°C (28°F)
Dewpoint: -5.0°C (23°F) [RH = 81%]
Pressure (altimeter): 29.87 inches Hg (1011.6 mb)
Winds: from the S (180 degrees) at 13 MPH (11 knots; 5.7 m/s)
gusting to 25 MPH (22 knots; 11.4 m/s)
Visibility: 2.00 miles (3.22 km)
Ceiling: 1100 feet AGL
Clouds: broken clouds at 1100 feet AGL
broken clouds at 3000 feet AGL
overcast cloud deck at 5000 feet AGL
Present Weather: -SN  (light snow)
KALB 300605Z 18011G22KT 2SM -SN BKN011 BKN030 OVC050 M02/M05 A2987 RMK AO2 DRSN P0000 T10221050

Conditions at: KALB observed 30 January 2015  05:51 UTC
Temperature: -2.2°C (28°F)
Dewpoint: -5.0°C (23°F) [RH = 81%]
Pressure (altimeter): 29.88 inches Hg (1011.9 mb)
[Sea-level pressure: 1012.2 mb]
Winds: from the S (170 degrees) at 20 MPH (17 knots; 8.8 m/s)
gusting to 25 MPH (22 knots; 11.4 m/s)
Visibility: 6 miles (10 km)
Ceiling: 1100 feet AGL
Clouds: broken clouds at 1100 feet AGL
overcast cloud deck at 7000 feet AGL
Present Weather: -SN  (light snow)
KALB 300551Z 17017G22KT 6SM -SN BKN011 OVC070 M02/M05 A2988 RMK AO2 SLP122 DRSN 4/003 P0001 60001 T10221050 11011 21022 56035

Conditions at: KALB observed 30 January 2015  05:18 UTC
Temperature: -2.2°C (28°F)
Dewpoint: -4.4°C (24°F) [RH = 85%]
Pressure (altimeter): 29.89 inches Hg (1012.3 mb)
Winds: from the S (180 degrees) at 13 MPH (11 knots; 5.7 m/s)
gusting to 21 MPH (18 knots; 9.4 m/s)
Visibility: 1.00 miles (1.61 km)
Ceiling: 1400 feet AGL
Clouds: overcast cloud deck at 1400 feet AGL
Present Weather: -SN  (light snow)
KALB 300518Z 18011G18KT 1SM R01/6000VP6000FT -SN OVC014 M02/M04 A2989 RMK AO2 DRSN P0000 T10221044

Conditions at: KALB observed 30 January 2015  05:11 UTC
Temperature: -2.2°C (28°F)
Dewpoint: -5.0°C (23°F) [RH = 81%]
Pressure (altimeter): 29.89 inches Hg (1012.3 mb)
Winds: from the S (180 degrees) at 16 MPH (14 knots; 7.3 m/s)
gusting to 25 MPH (22 knots; 11.4 m/s)
Visibility: 0.75 miles (1.21 km)
Ceiling: 1300 feet AGL
Clouds: broken clouds at 1300 feet AGL
overcast cloud deck at 1900 feet AGL
Present Weather: BLSN -SN  (blowing snow, light snow)
KALB 300511Z 18014G22KT 3/4SM R01/6000VP6000FT -SN BLSN BKN013 OVC019 M02/M05 A2989 RMK AO2 TWR VIS 1 P0000 T10221050

Conditions at: KALB observed 30 January 2015  05:04 UTC
Temperature: -2.2°C (28°F)
Dewpoint: -5.0°C (23°F) [RH = 81%]
Pressure (altimeter): 29.90 inches Hg (1012.6 mb)
Winds: from the S (180 degrees) at 18 MPH (16 knots; 8.3 m/s)
gusting to 25 MPH (22 knots; 11.4 m/s)
Visibility: 1.50 miles (2.41 km)
Ceiling: 1300 feet AGL
Clouds: broken clouds at 1300 feet AGL
overcast cloud deck at 3200 feet AGL
Present Weather: -SN  (light snow)
KALB 300504Z 18016G22KT 1 1/2SM -SN BKN013 OVC032 M02/M05 A2990 RMK AO2 TWR VIS 3 P0000 T10221050

Conditions at: KALB observed 30 January 2015  04:51 UTC
Temperature: -2.2°C (28°F)
Dewpoint: -5.6°C (22°F) [RH = 77%]
Pressure (altimeter): 29.91 inches Hg (1013.0 mb)
[Sea-level pressure: 1013.2 mb]
Winds: from the S (180 degrees) at 15 MPH (13 knots; 6.8 m/s)
Visibility: 8 miles (13 km)
Ceiling: 1300 feet AGL
Clouds: broken clouds at 1300 feet AGL
overcast cloud deck at 5000 feet AGL
Present Weather: -SN  (light snow)
KALB 300451Z 18013KT 8SM -SN BKN013 OVC050 M02/M06 A2991 RMK AO2 SLP132 P0000 T10221056 410111200

Conditions at: KALB observed 30 January 2015  03:51 UTC
Temperature: -2.2°C (28°F)
Dewpoint: -6.7°C (20°F) [RH = 71%]
Pressure (altimeter): 29.94 inches Hg (1014.0 mb)
[Sea-level pressure: 1014.3 mb]
Winds: from the SSE (160 degrees) at 13 MPH (11 knots; 5.7 m/s)
gusting to 26 MPH (23 knots; 12.0 m/s)
Visibility: 5 miles (8 km)
Ceiling: 3000 feet AGL
Clouds: few clouds at 2200 feet AGL
broken clouds at 3000 feet AGL
overcast cloud deck at 5500 feet AGL
Present Weather: -SN  (light snow)
KALB 300351Z 16011G23KT 5SM -SN FEW022 BKN030 OVC055 M02/M07 A2994 RMK AO2 SLP143 P0000 T10221067

Conditions at: KALB observed 30 January 2015  03:28 UTC
Temperature: -1.7°C (29°F)
Dewpoint: -7.8°C (18°F) [RH = 63%]
Pressure (altimeter): 29.96 inches Hg (1014.6 mb)
Winds: from the S (170 degrees) at 17 MPH (15 knots; 7.8 m/s)
gusting to 26 MPH (23 knots; 12.0 m/s)
Visibility: 6 miles (10 km)
Ceiling: 3000 feet AGL
Clouds: scattered clouds at 1800 feet AGL
broken clouds at 3000 feet AGL
overcast cloud deck at 3800 feet AGL
Present Weather: -SN  (light snow)
KALB 300328Z 17015G23KT 6SM -SN SCT018 BKN030 OVC038 M02/M08 A2996 RMK AO2 BKN V SCT P0000 T10171078

Conditions at: KALB observed 30 January 2015  03:16 UTC
Temperature: -2.2°C (28°F)
Dewpoint: -7.8°C (18°F) [RH = 65%]
Pressure (altimeter): 29.97 inches Hg (1015.0 mb)
Winds: from the SSE (160 degrees) at 16 MPH (14 knots; 7.3 m/s)
gusting to 25 MPH (22 knots; 11.4 m/s)
Visibility: 3 miles (5 km)
Ceiling: 2800 feet AGL
Clouds: scattered clouds at 1800 feet AGL
broken clouds at 2800 feet AGL
overcast cloud deck at 3500 feet AGL
Present Weather: -SN  (light snow)
KALB 300316Z 16014G22KT 3SM -SN SCT018 BKN028 OVC035 M02/M08 A2997 RMK AO2 TWR VIS 4 P0000 T10221078

Conditions at: KALB observed 30 January 2015  02:51 UTC
Temperature: -1.7°C (29°F)
Dewpoint: -9.4°C (15°F) [RH = 56%]
Pressure (altimeter): 29.98 inches Hg (1015.3 mb)
[Sea-level pressure: 1015.8 mb]
Winds: from the S (170 degrees) at 17 MPH (15 knots; 7.8 m/s)
gusting to 26 MPH (23 knots; 12.0 m/s)
Visibility: 2.00 miles (3.22 km)
Ceiling: 2800 feet AGL
Clouds: scattered clouds at 2000 feet AGL
broken clouds at 2800 feet AGL
overcast cloud deck at 3500 feet AGL
Present Weather: -SN  (light snow)
KALB 300251Z COR 17015G23KT 2SM -SN SCT020 BKN028 OVC035 M02/M09 A2998 RMK AO2 VIS 1 1/2V3 SNB18 SLP158 P0000 60000 T10171094 56015